sensor_id;sensor_type;location;lat;lon;timestamp;P1;durP1;ratioP1;P2;durP2;ratioP2
69253;SDS011;56364;41.816;12.448;2023-05-10T00:00:54;8.93;;;3.88;;
69253;SDS011;56364;41.816;12.448;2023-05-10T00:05:46;6.63;;;3.45;;
69253;SDS011;56364;41.816;12.448;2023-05-10T00:08:12;7.65;;;3.67;;
69253;SDS011;56364;41.816;12.448;2023-05-10T00:13:14;8.77;;;3.88;;
69253;SDS011;56364;41.816;12.448;2023-05-10T00:18:06;9.13;;;3.33;;
69253;SDS011;56364;41.816;12.448;2023-05-10T00:20:32;7.13;;;3.47;;
69253;SDS011;56364;41.816;12.448;2023-05-10T00:22:59;7.20;;;3.85;;
69253;SDS011;56364;41.816;12.448;2023-05-10T00:25:25;7.63;;;3.80;;
69253;SDS011;56364;41.816;12.448;2023-05-10T00:30:17;9.38;;;3.88;;
69253;SDS011;56364;41.816;12.448;2023-05-10T00:32:43;6.45;;;3.28;;
69253;SDS011;56364;41.816;12.448;2023-05-10T00:35:09;8.75;;;3.45;;
69253;SDS011;56364;41.816;12.448;2023-05-10T00:37:36;7.15;;;3.72;;
69253;SDS011;56364;41.816;12.448;2023-05-10T00:42:28;6.28;;;3.03;;
69253;SDS011;56364;41.816;12.448;2023-05-10T00:44:54;8.77;;;3.80;;
69253;SDS011;56364;41.816;12.448;2023-05-10T00:47:20;7.68;;;3.45;;
69253;SDS011;56364;41.816;12.448;2023-05-10T00:49:46;9.55;;;4.03;;
69253;SDS011;56364;41.816;12.448;2023-05-10T00:52:13;9.52;;;3.47;;
69253;SDS011;56364;41.816;12.448;2023-05-10T00:57:05;8.35;;;3.40;;
69253;SDS011;56364;41.816;12.448;2023-05-10T01:01:58;7.35;;;3.15;;
69253;SDS011;56364;41.816;12.448;2023-05-10T01:04:25;8.18;;;4.30;;
69253;SDS011;56364;41.816;12.448;2023-05-10T01:06:51;7.60;;;3.70;;
69253;SDS011;56364;41.816;12.448;2023-05-10T01:09:20;8.27;;;3.67;;
69253;SDS011;56364;41.816;12.448;2023-05-10T01:11:46;11.20;;;4.35;;
69253;SDS011;56364;41.816;12.448;2023-05-10T01:14:13;11.20;;;4.70;;
69253;SDS011;56364;41.816;12.448;2023-05-10T01:16:40;8.13;;;3.72;;
69253;SDS011;56364;41.816;12.448;2023-05-10T01:19:11;9.63;;;4.25;;
69253;SDS011;56364;41.816;12.448;2023-05-10T01:31:59;8.68;;;3.80;;
69253;SDS011;56364;41.816;12.448;2023-05-10T01:34:31;8.35;;;4.03;;
69253;SDS011;56364;41.816;12.448;2023-05-10T01:39:32;7.13;;;4.03;;
69253;SDS011;56364;41.816;12.448;2023-05-10T01:42:08;9.00;;;4.05;;
69253;SDS011;56364;41.816;12.448;2023-05-10T01:47:06;10.18;;;5.18;;
69253;SDS011;56364;41.816;12.448;2023-05-10T01:49:34;14.68;;;5.70;;
69253;SDS011;56364;41.816;12.448;2023-05-10T01:52:09;11.07;;;5.65;;
69253;SDS011;56364;41.816;12.448;2023-05-10T01:54:38;12.38;;;5.75;;
69253;SDS011;56364;41.816;12.448;2023-05-10T01:57:05;12.80;;;5.53;;
69253;SDS011;56364;41.816;12.448;2023-05-10T01:59:34;10.40;;;5.30;;
69253;SDS011;56364;41.816;12.448;2023-05-10T02:02:01;14.52;;;5.25;;
69253;SDS011;56364;41.816;12.448;2023-05-10T02:04:28;12.85;;;4.97;;
69253;SDS011;56364;41.816;12.448;2023-05-10T02:06:54;10.93;;;4.55;;
69253;SDS011;56364;41.816;12.448;2023-05-10T02:09:20;9.63;;;4.07;;
69253;SDS011;56364;41.816;12.448;2023-05-10T02:11:47;8.15;;;3.92;;
69253;SDS011;56364;41.816;12.448;2023-05-10T02:14:14;11.48;;;4.95;;
69253;SDS011;56364;41.816;12.448;2023-05-10T02:16:41;13.73;;;5.32;;
69253;SDS011;56364;41.816;12.448;2023-05-10T02:19:09;14.38;;;5.82;;
69253;SDS011;56364;41.816;12.448;2023-05-10T02:21:36;10.48;;;5.22;;
69253;SDS011;56364;41.816;12.448;2023-05-10T02:24:03;10.88;;;5.68;;
69253;SDS011;56364;41.816;12.448;2023-05-10T02:26:30;12.30;;;5.38;;
69253;SDS011;56364;41.816;12.448;2023-05-10T02:28:57;12.15;;;5.03;;
69253;SDS011;56364;41.816;12.448;2023-05-10T02:31:23;14.27;;;4.80;;
69253;SDS011;56364;41.816;12.448;2023-05-10T02:33:50;8.80;;;4.90;;
69253;SDS011;56364;41.816;12.448;2023-05-10T02:36:17;10.90;;;4.50;;
69253;SDS011;56364;41.816;12.448;2023-05-10T02:38:44;10.48;;;5.30;;
69253;SDS011;56364;41.816;12.448;2023-05-10T02:41:11;10.38;;;4.88;;
69253;SDS011;56364;41.816;12.448;2023-05-10T02:43:38;8.10;;;4.15;;
69253;SDS011;56364;41.816;12.448;2023-05-10T02:46:05;12.07;;;4.78;;
69253;SDS011;56364;41.816;12.448;2023-05-10T02:51:00;11.27;;;4.43;;
69253;SDS011;56364;41.816;12.448;2023-05-10T02:53:34;10.15;;;4.43;;
69253;SDS011;56364;41.816;12.448;2023-05-10T02:56:06;10.77;;;4.30;;
69253;SDS011;56364;41.816;12.448;2023-05-10T02:58:35;11.02;;;4.60;;
69253;SDS011;56364;41.816;12.448;2023-05-10T03:01:01;8.55;;;3.97;;
69253;SDS011;56364;41.816;12.448;2023-05-10T03:05:53;8.57;;;3.95;;
69253;SDS011;56364;41.816;12.448;2023-05-10T03:08:21;9.13;;;3.92;;
69253;SDS011;56364;41.816;12.448;2023-05-10T03:10:50;11.43;;;4.00;;
69253;SDS011;56364;41.816;12.448;2023-05-10T03:18:23;12.40;;;3.38;;
69253;SDS011;56364;41.816;12.448;2023-05-10T03:20:49;9.23;;;3.65;;
69253;SDS011;56364;41.816;12.448;2023-05-10T03:23:24;12.38;;;3.58;;
69253;SDS011;56364;41.816;12.448;2023-05-10T03:25:52;8.27;;;3.75;;
69253;SDS011;56364;41.816;12.448;2023-05-10T03:30:54;12.38;;;3.42;;
69253;SDS011;56364;41.816;12.448;2023-05-10T03:33:20;6.53;;;3.63;;
69253;SDS011;56364;41.816;12.448;2023-05-10T03:38:12;8.05;;;3.38;;
69253;SDS011;56364;41.816;12.448;2023-05-10T03:43:04;6.72;;;3.05;;
69253;SDS011;56364;41.816;12.448;2023-05-10T03:47:57;10.55;;;4.30;;
69253;SDS011;56364;41.816;12.448;2023-05-10T03:50:23;7.80;;;3.50;;
69253;SDS011;56364;41.816;12.448;2023-05-10T03:52:50;9.75;;;4.30;;
69253;SDS011;56364;41.816;12.448;2023-05-10T03:55:16;7.18;;;4.00;;
69253;SDS011;56364;41.816;12.448;2023-05-10T04:00:08;12.52;;;3.97;;
69253;SDS011;56364;41.816;12.448;2023-05-10T04:02:34;12.35;;;4.07;;
69253;SDS011;56364;41.816;12.448;2023-05-10T04:05:01;10.23;;;4.47;;
69253;SDS011;56364;41.816;12.448;2023-05-10T04:07:27;10.27;;;3.88;;
69253;SDS011;56364;41.816;12.448;2023-05-10T04:09:54;9.80;;;4.78;;
69253;SDS011;56364;41.816;12.448;2023-05-10T04:12:20;8.20;;;4.43;;
69253;SDS011;56364;41.816;12.448;2023-05-10T04:17:15;10.85;;;4.38;;
69253;SDS011;56364;41.816;12.448;2023-05-10T04:20:11;15.98;;;4.32;;
69253;SDS011;56364;41.816;12.448;2023-05-10T04:22:40;9.75;;;4.28;;
69253;SDS011;56364;41.816;12.448;2023-05-10T04:25:07;10.75;;;4.40;;
69253;SDS011;56364;41.816;12.448;2023-05-10T04:27:33;9.57;;;4.57;;
69253;SDS011;56364;41.816;12.448;2023-05-10T04:35:14;6.88;;;3.63;;
69253;SDS011;56364;41.816;12.448;2023-05-10T04:37:40;8.30;;;4.25;;
69253;SDS011;56364;41.816;12.448;2023-05-10T04:40:08;9.60;;;4.10;;
69253;SDS011;56364;41.816;12.448;2023-05-10T04:42:34;11.32;;;4.60;;
69253;SDS011;56364;41.816;12.448;2023-05-10T04:47:26;6.65;;;3.30;;
69253;SDS011;56364;41.816;12.448;2023-05-10T04:49:52;10.13;;;4.03;;
69253;SDS011;56364;41.816;12.448;2023-05-10T04:54:45;6.65;;;3.58;;
69253;SDS011;56364;41.816;12.448;2023-05-10T04:57:12;9.95;;;4.53;;
69253;SDS011;56364;41.816;12.448;2023-05-10T04:59:38;9.00;;;4.40;;
69253;SDS011;56364;41.816;12.448;2023-05-10T05:04:30;8.50;;;3.88;;
69253;SDS011;56364;41.816;12.448;2023-05-10T05:06:56;9.77;;;4.88;;
69253;SDS011;56364;41.816;12.448;2023-05-10T05:09:22;9.32;;;4.38;;
69253;SDS011;56364;41.816;12.448;2023-05-10T05:17:04;9.48;;;4.25;;
69253;SDS011;56364;41.816;12.448;2023-05-10T05:19:33;11.40;;;4.25;;
69253;SDS011;56364;41.816;12.448;2023-05-10T05:48:18;10.48;;;2.72;;
69253;SDS011;56364;41.816;12.448;2023-05-10T08:07:30;6.20;;;2.05;;
69253;SDS011;56364;41.816;12.448;2023-05-10T08:10:02;5.32;;;2.60;;
69253;SDS011;56364;41.816;12.448;2023-05-10T08:35:52;5.80;;;1.75;;
69253;SDS011;56364;41.816;12.448;2023-05-10T08:40:44;2.65;;;1.48;;
69253;SDS011;56364;41.816;12.448;2023-05-10T08:45:38;4.60;;;1.67;;
69253;SDS011;56364;41.816;12.448;2023-05-10T08:48:08;2.83;;;1.52;;
69253;SDS011;56364;41.816;12.448;2023-05-10T08:50:38;4.22;;;1.70;;
69253;SDS011;56364;41.816;12.448;2023-05-10T08:53:05;4.60;;;1.48;;
69253;SDS011;56364;41.816;12.448;2023-05-10T08:55:32;3.30;;;1.80;;
69253;SDS011;56364;41.816;12.448;2023-05-10T08:57:59;4.30;;;1.60;;
69253;SDS011;56364;41.816;12.448;2023-05-10T09:00:25;3.78;;;1.75;;
69253;SDS011;56364;41.816;12.448;2023-05-10T09:02:51;3.65;;;1.10;;
69253;SDS011;56364;41.816;12.448;2023-05-10T09:05:18;4.70;;;1.63;;
69253;SDS011;56364;41.816;12.448;2023-05-10T09:07:44;4.18;;;1.58;;
69253;SDS011;56364;41.816;12.448;2023-05-10T09:12:36;4.18;;;1.42;;
69253;SDS011;56364;41.816;12.448;2023-05-10T09:17:28;2.63;;;1.23;;
69253;SDS011;56364;41.816;12.448;2023-05-10T09:20:01;2.22;;;1.27;;
69253;SDS011;56364;41.816;12.448;2023-05-10T09:22:29;1.98;;;1.10;;
69253;SDS011;56364;41.816;12.448;2023-05-10T09:27:30;5.88;;;1.10;;
69253;SDS011;56364;41.816;12.448;2023-05-10T09:32:24;2.65;;;1.23;;
69253;SDS011;56364;41.816;12.448;2023-05-10T09:35:11;2.85;;;1.00;;
69253;SDS011;56364;41.816;12.448;2023-05-10T09:37:41;1.60;;;0.80;;
69253;SDS011;56364;41.816;12.448;2023-05-10T09:40:07;1.55;;;0.77;;
69253;SDS011;56364;41.816;12.448;2023-05-10T09:42:34;1.40;;;0.63;;
69253;SDS011;56364;41.816;12.448;2023-05-10T09:45:01;3.53;;;1.02;;
69253;SDS011;56364;41.816;12.448;2023-05-10T09:47:27;0.98;;;0.70;;
69253;SDS011;56364;41.816;12.448;2023-05-10T09:49:53;2.38;;;1.00;;
69253;SDS011;56364;41.816;12.448;2023-05-10T09:52:27;1.13;;;0.80;;
69253;SDS011;56364;41.816;12.448;2023-05-10T09:54:53;4.30;;;1.25;;
69253;SDS011;56364;41.816;12.448;2023-05-10T09:57:20;4.45;;;0.90;;
69253;SDS011;56364;41.816;12.448;2023-05-10T09:59:47;1.60;;;0.80;;
69253;SDS011;56364;41.816;12.448;2023-05-10T10:02:19;2.15;;;1.00;;
69253;SDS011;56364;41.816;12.448;2023-05-10T10:07:11;1.67;;;0.95;;
69253;SDS011;56364;41.816;12.448;2023-05-10T10:09:37;4.05;;;1.02;;
69253;SDS011;56364;41.816;12.448;2023-05-10T10:12:04;4.20;;;1.08;;
69253;SDS011;56364;41.816;12.448;2023-05-10T10:14:30;1.90;;;1.10;;
69253;SDS011;56364;41.816;12.448;2023-05-10T10:16:56;2.63;;;1.20;;
69253;SDS011;56364;41.816;12.448;2023-05-10T10:19:22;1.65;;;0.90;;
69253;SDS011;56364;41.816;12.448;2023-05-10T10:21:49;1.17;;;0.60;;
69253;SDS011;56364;41.816;12.448;2023-05-10T10:24:15;2.35;;;0.60;;
69253;SDS011;56364;41.816;12.448;2023-05-10T10:26:41;4.35;;;0.98;;
69253;SDS011;56364;41.816;12.448;2023-05-10T10:31:36;1.42;;;0.77;;
69253;SDS011;56364;41.816;12.448;2023-05-10T10:34:05;3.40;;;0.98;;
69253;SDS011;56364;41.816;12.448;2023-05-10T10:36:42;3.15;;;0.80;;
69253;SDS011;56364;41.816;12.448;2023-05-10T10:39:09;3.13;;;0.70;;
69253;SDS011;56364;41.816;12.448;2023-05-10T10:41:36;1.73;;;0.68;;
69253;SDS011;56364;41.816;12.448;2023-05-10T10:49:26;0.85;;;0.70;;
69253;SDS011;56364;41.816;12.448;2023-05-10T10:54:37;3.25;;;0.60;;
69253;SDS011;56364;41.816;12.448;2023-05-10T10:57:12;0.35;;;0.30;;
69253;SDS011;56364;41.816;12.448;2023-05-10T10:59:42;1.50;;;0.30;;
69253;SDS011;56364;41.816;12.448;2023-05-10T11:04:43;1.55;;;0.57;;
69253;SDS011;56364;41.816;12.448;2023-05-10T11:07:18;1.00;;;0.40;;
69253;SDS011;56364;41.816;12.448;2023-05-10T11:09:47;1.88;;;0.60;;
69253;SDS011;56364;41.816;12.448;2023-05-10T11:14:40;1.55;;;0.60;;
69253;SDS011;56364;41.816;12.448;2023-05-10T11:19:31;4.53;;;0.70;;
69253;SDS011;56364;41.816;12.448;2023-05-10T11:24:30;2.95;;;0.70;;
69253;SDS011;56364;41.816;12.448;2023-05-10T11:26:56;1.55;;;0.60;;
69253;SDS011;56364;41.816;12.448;2023-05-10T11:31:51;0.95;;;0.65;;
69253;SDS011;56364;41.816;12.448;2023-05-10T11:36:53;0.95;;;0.60;;
69253;SDS011;56364;41.816;12.448;2023-05-10T12:18:03;3.92;;;0.95;;
69253;SDS011;56364;41.816;12.448;2023-05-10T12:20:30;2.63;;;0.98;;
69253;SDS011;56364;41.816;12.448;2023-05-10T12:22:57;1.63;;;0.73;;
69253;SDS011;56364;41.816;12.448;2023-05-10T12:25:24;1.27;;;0.77;;
69253;SDS011;56364;41.816;12.448;2023-05-10T12:27:54;2.65;;;0.98;;
69253;SDS011;56364;41.816;12.448;2023-05-10T12:30:24;1.65;;;0.73;;
69253;SDS011;56364;41.816;12.448;2023-05-10T12:32:51;5.30;;;0.82;;
69253;SDS011;56364;41.816;12.448;2023-05-10T12:35:18;2.15;;;0.90;;
69253;SDS011;56364;41.816;12.448;2023-05-10T12:37:49;1.98;;;0.98;;
69253;SDS011;56364;41.816;12.448;2023-05-10T12:40:16;1.63;;;0.65;;
69253;SDS011;56364;41.816;12.448;2023-05-10T12:45:11;4.50;;;1.00;;
69253;SDS011;56364;41.816;12.448;2023-05-10T12:47:37;1.77;;;0.90;;
69253;SDS011;56364;41.816;12.448;2023-05-10T12:50:04;1.13;;;0.80;;
69253;SDS011;56364;41.816;12.448;2023-05-10T12:52:30;1.10;;;0.70;;
69253;SDS011;56364;41.816;12.448;2023-05-10T12:54:57;2.80;;;0.90;;
69253;SDS011;56364;41.816;12.448;2023-05-10T12:57:23;2.72;;;0.95;;
69253;SDS011;56364;41.816;12.448;2023-05-10T12:59:49;6.00;;;0.90;;
69253;SDS011;56364;41.816;12.448;2023-05-10T13:02:16;1.30;;;0.82;;
69253;SDS011;56364;41.816;12.448;2023-05-10T13:04:46;1.98;;;0.90;;
69253;SDS011;56364;41.816;12.448;2023-05-10T13:07:12;1.35;;;0.70;;
69253;SDS011;56364;41.816;12.448;2023-05-10T13:09:38;1.58;;;0.77;;
69253;SDS011;56364;41.816;12.448;2023-05-10T13:12:04;2.83;;;0.60;;
69253;SDS011;56364;41.816;12.448;2023-05-10T13:14:30;1.90;;;0.68;;
69253;SDS011;56364;41.816;12.448;2023-05-10T13:16:57;1.92;;;0.90;;
69253;SDS011;56364;41.816;12.448;2023-05-10T13:19:23;2.28;;;0.93;;
69253;SDS011;56364;41.816;12.448;2023-05-10T13:21:49;3.22;;;1.08;;
69253;SDS011;56364;41.816;12.448;2023-05-10T13:24:15;1.17;;;0.68;;
69253;SDS011;56364;41.816;12.448;2023-05-10T13:26:42;2.70;;;0.70;;
69253;SDS011;56364;41.816;12.448;2023-05-10T13:29:08;2.78;;;0.90;;
69253;SDS011;56364;41.816;12.448;2023-05-10T13:31:35;8.77;;;1.13;;
69253;SDS011;56364;41.816;12.448;2023-05-10T13:34:01;4.88;;;1.08;;
69253;SDS011;56364;41.816;12.448;2023-05-10T13:36:27;4.18;;;1.02;;
69253;SDS011;56364;41.816;12.448;2023-05-10T13:38:56;3.67;;;0.80;;
69253;SDS011;56364;41.816;12.448;2023-05-10T13:41:22;3.17;;;0.80;;
69253;SDS011;56364;41.816;12.448;2023-05-10T13:43:48;2.97;;;0.70;;
69253;SDS011;56364;41.816;12.448;2023-05-10T13:46:14;2.25;;;0.80;;
69253;SDS011;56364;41.816;12.448;2023-05-10T13:48:40;2.88;;;0.75;;
69253;SDS011;56364;41.816;12.448;2023-05-10T13:53:32;0.98;;;0.57;;
69253;SDS011;56364;41.816;12.448;2023-05-10T13:55:58;5.25;;;0.90;;
69253;SDS011;56364;41.816;12.448;2023-05-10T13:58:25;2.35;;;0.77;;
69253;SDS011;56364;41.816;12.448;2023-05-10T14:00:54;6.63;;;1.25;;
69253;SDS011;56364;41.816;12.448;2023-05-10T14:05:46;2.60;;;0.80;;
69253;SDS011;56364;41.816;12.448;2023-05-10T14:08:12;2.08;;;0.70;;
69253;SDS011;56364;41.816;12.448;2023-05-10T14:10:38;4.53;;;0.77;;
69253;SDS011;56364;41.816;12.448;2023-05-10T14:13:04;1.75;;;0.93;;
69253;SDS011;56364;41.816;12.448;2023-05-10T14:15:31;3.25;;;1.05;;
69253;SDS011;56364;41.816;12.448;2023-05-10T14:17:57;1.60;;;0.95;;
69253;SDS011;56364;41.816;12.448;2023-05-10T14:22:49;2.35;;;0.93;;
69253;SDS011;56364;41.816;12.448;2023-05-10T14:27:43;5.15;;;0.80;;
69253;SDS011;56364;41.816;12.448;2023-05-10T14:30:10;1.85;;;1.00;;
69253;SDS011;56364;41.816;12.448;2023-05-10T14:32:36;2.58;;;0.80;;
69253;SDS011;56364;41.816;12.448;2023-05-10T14:35:02;2.38;;;0.73;;
69253;SDS011;56364;41.816;12.448;2023-05-10T14:37:28;4.85;;;1.10;;
69253;SDS011;56364;41.816;12.448;2023-05-10T14:39:55;1.90;;;0.60;;
69253;SDS011;56364;41.816;12.448;2023-05-10T14:44:46;4.68;;;0.93;;
69253;SDS011;56364;41.816;12.448;2023-05-10T14:47:16;3.22;;;0.88;;
69253;SDS011;56364;41.816;12.448;2023-05-10T14:49:42;2.83;;;1.00;;
69253;SDS011;56364;41.816;12.448;2023-05-10T14:52:09;1.70;;;1.00;;
69253;SDS011;56364;41.816;12.448;2023-05-10T14:54:39;4.75;;;1.48;;
69253;SDS011;56364;41.816;12.448;2023-05-10T14:57:06;5.55;;;1.23;;
69253;SDS011;56364;41.816;12.448;2023-05-10T14:59:32;4.78;;;0.93;;
69253;SDS011;56364;41.816;12.448;2023-05-10T15:01:58;3.60;;;1.20;;
69253;SDS011;56364;41.816;12.448;2023-05-10T15:04:24;2.90;;;1.20;;
69253;SDS011;56364;41.816;12.448;2023-05-10T15:09:17;3.88;;;1.17;;
69253;SDS011;56364;41.816;12.448;2023-05-10T15:11:43;4.18;;;1.30;;
69253;SDS011;56364;41.816;12.448;2023-05-10T15:14:09;2.40;;;1.02;;
69253;SDS011;56364;41.816;12.448;2023-05-10T15:16:35;5.30;;;1.20;;
69253;SDS011;56364;41.816;12.448;2023-05-10T15:19:02;4.05;;;1.17;;
69253;SDS011;56364;41.816;12.448;2023-05-10T15:21:28;1.95;;;1.05;;
69253;SDS011;56364;41.816;12.448;2023-05-10T15:23:59;4.60;;;1.40;;
69253;SDS011;56364;41.816;12.448;2023-05-10T15:26:26;4.57;;;1.42;;
69253;SDS011;56364;41.816;12.448;2023-05-10T15:28:52;1.73;;;0.82;;
69253;SDS011;56364;41.816;12.448;2023-05-10T15:31:18;1.67;;;0.77;;
69253;SDS011;56364;41.816;12.448;2023-05-10T15:33:44;7.03;;;1.15;;
69253;SDS011;56364;41.816;12.448;2023-05-10T15:36:10;5.10;;;1.33;;
69253;SDS011;56364;41.816;12.448;2023-05-10T15:38:36;3.85;;;1.38;;
69253;SDS011;56364;41.816;12.448;2023-05-10T15:41:02;6.50;;;1.55;;
69253;SDS011;56364;41.816;12.448;2023-05-10T15:43:28;3.25;;;1.35;;
69253;SDS011;56364;41.816;12.448;2023-05-10T15:48:20;5.85;;;1.80;;
69253;SDS011;56364;41.816;12.448;2023-05-10T15:50:46;10.38;;;1.48;;
69253;SDS011;56364;41.816;12.448;2023-05-10T15:55:41;8.35;;;1.20;;
69253;SDS011;56364;41.816;12.448;2023-05-10T15:58:07;10.50;;;1.20;;
69253;SDS011;56364;41.816;12.448;2023-05-10T16:00:33;4.13;;;1.27;;
69253;SDS011;56364;41.816;12.448;2023-05-10T16:03:00;4.03;;;0.90;;
69253;SDS011;56364;41.816;12.448;2023-05-10T16:05:26;4.60;;;1.27;;
69253;SDS011;56364;41.816;12.448;2023-05-10T16:07:56;7.20;;;0.93;;
69253;SDS011;56364;41.816;12.448;2023-05-10T16:12:48;8.98;;;1.92;;
69253;SDS011;56364;41.816;12.448;2023-05-10T16:15:14;13.43;;;1.27;;
69253;SDS011;56364;41.816;12.448;2023-05-10T16:20:07;12.88;;;1.90;;
69253;SDS011;56364;41.816;12.448;2023-05-10T16:22:33;11.15;;;1.40;;
69253;SDS011;56364;41.816;12.448;2023-05-10T16:25:00;12.52;;;1.60;;
69253;SDS011;56364;41.816;12.448;2023-05-10T16:27:26;9.75;;;1.48;;
69253;SDS011;56364;41.816;12.448;2023-05-10T16:29:54;8.93;;;1.35;;
69253;SDS011;56364;41.816;12.448;2023-05-10T16:32:20;9.05;;;1.45;;
69253;SDS011;56364;41.816;12.448;2023-05-10T16:34:47;9.20;;;1.05;;
69253;SDS011;56364;41.816;12.448;2023-05-10T16:37:20;22.58;;;2.05;;
69253;SDS011;56364;41.816;12.448;2023-05-10T16:39:46;3.22;;;1.33;;
69253;SDS011;56364;41.816;12.448;2023-05-10T16:42:12;12.52;;;1.15;;
69253;SDS011;56364;41.816;12.448;2023-05-10T16:47:04;9.25;;;1.38;;
69253;SDS011;56364;41.816;12.448;2023-05-10T16:49:31;9.13;;;1.40;;
69253;SDS011;56364;41.816;12.448;2023-05-10T16:54:31;14.30;;;1.52;;
69253;SDS011;56364;41.816;12.448;2023-05-10T16:57:08;5.65;;;1.77;;
69253;SDS011;56364;41.816;12.448;2023-05-10T16:59:37;13.98;;;1.63;;
69253;SDS011;56364;41.816;12.448;2023-05-10T17:02:07;10.80;;;1.48;;
69253;SDS011;56364;41.816;12.448;2023-05-10T17:06:59;11.70;;;1.30;;
69253;SDS011;56364;41.816;12.448;2023-05-10T17:09:26;18.63;;;2.22;;
69253;SDS011;56364;41.816;12.448;2023-05-10T17:11:52;10.82;;;1.42;;
69253;SDS011;56364;41.816;12.448;2023-05-10T17:40:15;12.43;;;1.85;;
69253;SDS011;56364;41.816;12.448;2023-05-10T17:42:41;7.60;;;1.33;;
69253;SDS011;56364;41.816;12.448;2023-05-10T17:47:33;14.30;;;2.17;;
69253;SDS011;56364;41.816;12.448;2023-05-10T17:49:59;15.50;;;2.05;;
69253;SDS011;56364;41.816;12.448;2023-05-10T17:54:52;10.48;;;1.88;;
69253;SDS011;56364;41.816;12.448;2023-05-10T17:57:19;14.48;;;1.90;;
69253;SDS011;56364;41.816;12.448;2023-05-10T18:02:11;16.85;;;1.80;;
69253;SDS011;56364;41.816;12.448;2023-05-10T18:04:41;17.38;;;1.73;;
69253;SDS011;56364;41.816;12.448;2023-05-10T18:07:07;20.70;;;1.88;;
69253;SDS011;56364;41.816;12.448;2023-05-10T18:09:33;17.40;;;1.65;;
69253;SDS011;56364;41.816;12.448;2023-05-10T18:12:03;13.15;;;1.90;;
69253;SDS011;56364;41.816;12.448;2023-05-10T18:14:30;9.27;;;1.50;;
69253;SDS011;56364;41.816;12.448;2023-05-10T18:16:56;9.55;;;1.38;;
69253;SDS011;56364;41.816;12.448;2023-05-10T18:19:22;11.07;;;2.00;;
69253;SDS011;56364;41.816;12.448;2023-05-10T18:21:51;8.88;;;2.17;;
69253;SDS011;56364;41.816;12.448;2023-05-10T18:24:18;12.32;;;1.50;;
69253;SDS011;56364;41.816;12.448;2023-05-10T18:26:46;14.63;;;1.92;;
69253;SDS011;56364;41.816;12.448;2023-05-10T18:29:12;13.85;;;2.30;;
69253;SDS011;56364;41.816;12.448;2023-05-10T18:34:04;12.05;;;1.63;;
69253;SDS011;56364;41.816;12.448;2023-05-10T18:36:34;15.05;;;1.70;;
69253;SDS011;56364;41.816;12.448;2023-05-10T18:39:18;9.75;;;1.65;;
69253;SDS011;56364;41.816;12.448;2023-05-10T18:41:53;16.73;;;1.95;;
69253;SDS011;56364;41.816;12.448;2023-05-10T18:44:24;17.42;;;1.90;;
69253;SDS011;56364;41.816;12.448;2023-05-10T18:46:51;12.45;;;2.13;;
69253;SDS011;56364;41.816;12.448;2023-05-10T18:49:26;17.02;;;2.33;;
69253;SDS011;56364;41.816;12.448;2023-05-10T18:51:53;14.90;;;2.08;;
69253;SDS011;56364;41.816;12.448;2023-05-10T18:57:04;16.35;;;1.92;;
69253;SDS011;56364;41.816;12.448;2023-05-10T19:00:12;14.55;;;2.05;;
69253;SDS011;56364;41.816;12.448;2023-05-10T19:02:39;19.33;;;2.65;;
69253;SDS011;56364;41.816;12.448;2023-05-10T19:28:20;18.10;;;2.70;;
69253;SDS011;56364;41.816;12.448;2023-05-10T19:36:06;13.63;;;3.00;;
69253;SDS011;56364;41.816;12.448;2023-05-10T19:38:43;16.77;;;3.38;;
69253;SDS011;56364;41.816;12.448;2023-05-10T19:41:09;23.30;;;6.97;;
69253;SDS011;56364;41.816;12.448;2023-05-10T19:43:35;26.63;;;5.22;;
69253;SDS011;56364;41.816;12.448;2023-05-10T19:46:02;11.68;;;2.42;;
69253;SDS011;56364;41.816;12.448;2023-05-10T19:51:01;23.30;;;4.65;;
69253;SDS011;56364;41.816;12.448;2023-05-10T19:53:27;31.27;;;10.27;;
69253;SDS011;56364;41.816;12.448;2023-05-10T19:58:20;20.27;;;3.97;;
69253;SDS011;56364;41.816;12.448;2023-05-10T20:00:57;27.20;;;5.25;;
69253;SDS011;56364;41.816;12.448;2023-05-10T20:03:23;18.63;;;3.90;;
69253;SDS011;56364;41.816;12.448;2023-05-10T20:05:59;17.08;;;4.22;;
69253;SDS011;56364;41.816;12.448;2023-05-10T20:08:27;14.68;;;2.63;;
69253;SDS011;56364;41.816;12.448;2023-05-10T20:10:53;21.08;;;2.65;;
69253;SDS011;56364;41.816;12.448;2023-05-10T20:13:21;15.63;;;2.10;;
69253;SDS011;56364;41.816;12.448;2023-05-10T20:15:48;13.85;;;1.45;;
69253;SDS011;56364;41.816;12.448;2023-05-10T20:18:14;17.10;;;2.33;;
69253;SDS011;56364;41.816;12.448;2023-05-10T20:20:40;15.98;;;2.47;;
69253;SDS011;56364;41.816;12.448;2023-05-10T20:23:07;20.05;;;2.22;;
69253;SDS011;56364;41.816;12.448;2023-05-10T20:25:34;12.82;;;1.80;;
69253;SDS011;56364;41.816;12.448;2023-05-10T20:28:00;9.75;;;1.63;;
69253;SDS011;56364;41.816;12.448;2023-05-10T20:30:26;10.77;;;1.70;;
69253;SDS011;56364;41.816;12.448;2023-05-10T20:35:19;12.40;;;1.60;;
69253;SDS011;56364;41.816;12.448;2023-05-10T20:37:46;11.60;;;1.65;;
69253;SDS011;56364;41.816;12.448;2023-05-10T20:40:33;12.85;;;1.85;;
69253;SDS011;56364;41.816;12.448;2023-05-10T20:43:01;14.13;;;1.92;;
69253;SDS011;56364;41.816;12.448;2023-05-10T20:45:31;17.63;;;2.30;;
69253;SDS011;56364;41.816;12.448;2023-05-10T20:48:18;15.23;;;2.13;;
69253;SDS011;56364;41.816;12.448;2023-05-10T20:50:44;10.95;;;1.60;;
69253;SDS011;56364;41.816;12.448;2023-05-10T20:58:30;14.90;;;1.83;;
69253;SDS011;56364;41.816;12.448;2023-05-10T21:03:22;12.20;;;1.65;;
69253;SDS011;56364;41.816;12.448;2023-05-10T21:05:48;16.60;;;2.33;;
69253;SDS011;56364;41.816;12.448;2023-05-10T21:08:14;14.20;;;2.50;;
69253;SDS011;56364;41.816;12.448;2023-05-10T21:10:42;12.52;;;1.50;;
69253;SDS011;56364;41.816;12.448;2023-05-10T21:13:08;11.38;;;1.77;;
69253;SDS011;56364;41.816;12.448;2023-05-10T21:15:34;9.65;;;1.60;;
69253;SDS011;56364;41.816;12.448;2023-05-10T21:18:01;16.58;;;2.35;;
69253;SDS011;56364;41.816;12.448;2023-05-10T21:20:28;12.13;;;1.95;;
69253;SDS011;56364;41.816;12.448;2023-05-10T21:22:54;17.88;;;2.28;;
69253;SDS011;56364;41.816;12.448;2023-05-10T21:25:20;11.68;;;2.35;;
69253;SDS011;56364;41.816;12.448;2023-05-10T21:27:47;15.70;;;2.00;;
69253;SDS011;56364;41.816;12.448;2023-05-10T21:30:13;17.90;;;2.10;;
69253;SDS011;56364;41.816;12.448;2023-05-10T21:32:39;26.38;;;2.92;;
69253;SDS011;56364;41.816;12.448;2023-05-10T21:35:05;17.92;;;2.08;;
69253;SDS011;56364;41.816;12.448;2023-05-10T21:37:31;9.57;;;2.05;;
69253;SDS011;56364;41.816;12.448;2023-05-10T21:42:25;10.95;;;1.50;;
69253;SDS011;56364;41.816;12.448;2023-05-10T21:44:51;14.95;;;2.90;;
69253;SDS011;56364;41.816;12.448;2023-05-10T21:47:17;10.07;;;1.85;;
69253;SDS011;56364;41.816;12.448;2023-05-10T21:49:43;14.38;;;2.08;;
69253;SDS011;56364;41.816;12.448;2023-05-10T21:52:10;20.98;;;2.40;;
69253;SDS011;56364;41.816;12.448;2023-05-10T21:57:12;15.57;;;2.30;;
69253;SDS011;56364;41.816;12.448;2023-05-10T22:02:52;15.25;;;2.63;;
69253;SDS011;56364;41.816;12.448;2023-05-10T22:05:19;17.88;;;1.83;;
69253;SDS011;56364;41.816;12.448;2023-05-10T22:07:52;17.33;;;2.08;;
69253;SDS011;56364;41.816;12.448;2023-05-10T22:10:18;15.75;;;2.42;;
69253;SDS011;56364;41.816;12.448;2023-05-10T22:12:44;18.58;;;1.70;;
69253;SDS011;56364;41.816;12.448;2023-05-10T22:15:13;18.45;;;1.80;;
69253;SDS011;56364;41.816;12.448;2023-05-10T22:20:06;12.13;;;1.98;;